Time;durP1;ratioP1;P1;durP2;ratioP2;P2;SDS_P1;SDS_P2;PMS_P1;PMS_P2;Temp;Humidity;BMP_temperature;BMP_pressure;BME280_temperature;BME280_humidity;BME280_pressure;Samples;Min_cycle;Max_cycle;Signal;HPM_P1;HPM_P2
2023/01/10 00:02:26;;;;;;;36.83;7.32;;;;;;;;;;5073008;28;20103;-34
2023/01/10 00:04:53;;;;;;;50.10;7.15;;;;;;;;;;5073386;28;20494;-33
2023/01/10 00:07:20;;;;;;;59.47;7.38;;;;;;;;;;5073268;28;20487;-34
2023/01/10 00:09:47;;;;;;;54.40;8.18;;;;;;;;;;5073940;28;20099;-36
2023/01/10 00:14:59;;;;;;;42.50;7.15;;;;;;;;;;5052613;28;20051;-35
2023/01/10 00:17:26;;;;;;;38.35;6.45;;;;;;;;;;5036542;28;20021;-34
2023/01/10 00:19:53;;;;;;;30.58;6.45;;;;;;;;;;5054749;28;20018;-33
2023/01/10 00:22:23;;;;;;;32.63;6.90;;;;;;;;;;5054654;28;20017;-34
2023/01/10 00:24:51;;;;;;;27.55;6.75;;;;;;;;;;5054500;28;20510;-33
2023/01/10 00:27:24;;;;;;;22.33;6.28;;;;;;;;;;5054585;28;20494;-35
2023/01/10 00:29:54;;;;;;;31.20;6.60;;;;;;;;;;5036382;28;20017;-33
2023/01/10 00:32:22;;;;;;;27.67;6.82;;;;;;;;;;5054310;28;20029;-34
2023/01/10 00:34:49;;;;;;;32.20;6.75;;;;;;;;;;5054080;28;20036;-33
2023/01/10 00:37:16;;;;;;;27.58;6.25;;;;;;;;;;5054513;28;20028;-34
2023/01/10 00:39:43;;;;;;;28.92;6.85;;;;;;;;;;5054373;28;20052;-33
2023/01/10 00:44:56;;;;;;;27.95;6.93;;;;;;;;;;5054437;28;20051;-36
2023/01/10 00:47:23;;;;;;;25.15;5.65;;;;;;;;;;5054095;28;20027;-35
2023/01/10 00:49:50;;;;;;;28.40;6.40;;;;;;;;;;5054225;28;20517;-33
2023/01/10 00:52:17;;;;;;;33.78;6.53;;;;;;;;;;5053959;28;20017;-34
2023/01/10 00:54:44;;;;;;;27.27;6.07;;;;;;;;;;5054017;28;20118;-33
2023/01/10 00:57:12;;;;;;;28.30;6.15;;;;;;;;;;5054026;28;20483;-34
2023/01/10 00:59:39;;;;;;;28.90;5.88;;;;;;;;;;5054016;28;20030;-35
2023/01/10 01:02:06;;;;;;;25.60;5.60;;;;;;;;;;5053452;28;20021;-33
2023/01/10 01:04:34;;;;;;;21.95;6.13;;;;;;;;;;5054029;28;20390;-33
2023/01/10 01:07:01;;;;;;;22.73;5.47;;;;;;;;;;5053689;28;20054;-34
2023/01/10 01:09:29;;;;;;;28.45;5.43;;;;;;;;;;5053703;28;20025;-34
2023/01/10 01:11:56;;;;;;;21.67;5.53;;;;;;;;;;5053532;28;20418;-34
2023/01/10 01:14:24;;;;;;;22.98;5.10;;;;;;;;;;5053484;28;20033;-34
2023/01/10 01:16:51;;;;;;;24.88;5.00;;;;;;;;;;5053645;28;20044;-34
2023/01/10 01:19:18;;;;;;;19.48;4.60;;;;;;;;;;5053659;28;20116;-34
2023/01/10 01:21:45;;;;;;;20.98;5.28;;;;;;;;;;5053545;28;20048;-34
2023/01/10 01:24:11;;;;;;;27.40;6.03;;;;;;;;;;5053424;28;20017;-33
2023/01/10 01:26:40;;;;;;;19.42;4.85;;;;;;;;;;5053483;28;20033;-35
2023/01/10 01:29:07;;;;;;;18.60;4.70;;;;;;;;;;5053169;28;20075;-33
2023/01/10 01:31:34;;;;;;;18.42;4.97;;;;;;;;;;5053231;28;20025;-35
2023/01/10 01:34:01;;;;;;;23.13;5.05;;;;;;;;;;5053353;28;20063;-35
2023/01/10 01:36:28;;;;;;;21.40;4.88;;;;;;;;;;5053189;28;20051;-34
2023/01/10 01:38:55;;;;;;;20.08;5.10;;;;;;;;;;5053045;28;20112;-33
2023/01/10 01:44:14;;;;;;;24.73;5.30;;;;;;;;;;5053074;28;20051;-34
2023/01/10 01:46:42;;;;;;;19.65;4.82;;;;;;;;;;5053072;28;20029;-34
2023/01/10 01:49:14;;;;;;;19.52;4.68;;;;;;;;;;5052987;28;20479;-37
2023/01/10 01:51:44;;;;;;;20.10;4.90;;;;;;;;;;5052791;28;20063;-33
2023/01/10 01:54:12;;;;;;;17.85;4.40;;;;;;;;;;5052757;28;20033;-34
2023/01/10 01:56:42;;;;;;;19.48;4.43;;;;;;;;;;5052698;28;20028;-34
2023/01/10 01:59:14;;;;;;;19.73;4.55;;;;;;;;;;5052673;28;20668;-34
2023/01/10 02:01:42;;;;;;;15.35;4.13;;;;;;;;;;5052748;28;20021;-35
2023/01/10 02:04:24;;;;;;;20.63;4.72;;;;;;;;;;5052690;28;20494;-33
2023/01/10 02:06:52;;;;;;;18.75;4.85;;;;;;;;;;5052411;28;20418;-34
2023/01/10 02:09:37;;;;;;;14.68;3.47;;;;;;;;;;5052586;28;20483;-33
2023/01/10 02:12:04;;;;;;;16.58;4.47;;;;;;;;;;5052577;28;20727;-33
2023/01/10 02:14:32;;;;;;;17.15;4.05;;;;;;;;;;5051997;28;20099;-34
2023/01/10 02:16:59;;;;;;;13.85;3.80;;;;;;;;;;5052555;28;20021;-36
2023/01/10 02:19:28;;;;;;;17.42;4.00;;;;;;;;;;5052378;28;20493;-34
2023/01/10 02:22:08;;;;;;;17.25;3.83;;;;;;;;;;5052361;28;20395;-33
2023/01/10 02:24:35;;;;;;;16.40;4.20;;;;;;;;;;5052394;28;20434;-35
2023/01/10 02:27:20;;;;;;;15.13;3.88;;;;;;;;;;5052445;28;20028;-34
2023/01/10 02:29:56;;;;;;;14.65;3.88;;;;;;;;;;5052146;28;20761;-34
2023/01/10 02:32:31;;;;;;;15.65;3.72;;;;;;;;;;5052223;28;20033;-34
2023/01/10 02:34:58;;;;;;;16.30;4.13;;;;;;;;;;5051990;28;20486;-33
2023/01/10 02:37:28;;;;;;;10.88;3.40;;;;;;;;;;5052167;28;20489;-33
2023/01/10 02:40:00;;;;;;;12.27;3.13;;;;;;;;;;5051943;28;20049;-34
2023/01/10 02:42:33;;;;;;;10.18;3.65;;;;;;;;;;5052051;28;20021;-34
2023/01/10 02:45:12;;;;;;;13.50;3.28;;;;;;;;;;5052145;28;20021;-34
2023/01/10 02:47:41;;;;;;;18.30;3.90;;;;;;;;;;5052110;28;20021;-34
2023/01/10 02:50:26;;;;;;;10.77;3.65;;;;;;;;;;5052007;28;20017;-33
2023/01/10 02:52:53;;;;;;;12.82;3.47;;;;;;;;;;5052012;28;20021;-34
2023/01/10 02:55:22;;;;;;;10.27;3.20;;;;;;;;;;5051896;28;20395;-34
2023/01/10 02:57:52;;;;;;;15.02;3.20;;;;;;;;;;5051954;28;20078;-36
2023/01/10 03:00:23;;;;;;;14.85;3.47;;;;;;;;;;5051761;28;20033;-34
2023/01/10 03:03:02;;;;;;;12.90;3.38;;;;;;;;;;5051722;28;20043;-33
2023/01/10 03:05:41;;;;;;;12.07;3.25;;;;;;;;;;5051872;28;20422;-33
2023/01/10 03:08:08;;;;;;;39.35;5.05;;;;;;;;;;5051202;28;20045;-43
2023/01/10 03:10:41;;;;;;;32.95;3.95;;;;;;;;;;5051690;28;20056;-43
2023/01/10 03:13:11;;;;;;;50.75;4.03;;;;;;;;;;5039792;28;20027;-43
2023/01/10 03:15:40;;;;;;;24.27;3.65;;;;;;;;;;5040359;28;20087;-44
2023/01/10 03:18:15;;;;;;;48.05;4.82;;;;;;;;;;5039688;28;20103;-42
2023/01/10 03:20:45;;;;;;;54.50;4.47;;;;;;;;;;5039653;28;20029;-43
2023/01/10 03:23:12;;;;;;;42.58;4.13;;;;;;;;;;5040873;28;20090;-44
2023/01/10 03:25:40;;;;;;;32.67;4.20;;;;;;;;;;5041955;28;20545;-43
2023/01/10 03:28:10;;;;;;;25.00;3.42;;;;;;;;;;5043458;28;20037;-43
2023/01/10 03:30:36;;;;;;;19.92;2.80;;;;;;;;;;5044545;28;20041;-43
2023/01/10 03:33:04;;;;;;;24.50;3.42;;;;;;;;;;5044423;28;20029;-44
2023/01/10 03:35:49;;;;;;;20.85;3.25;;;;;;;;;;5027906;28;20124;-43
2023/01/10 03:38:21;;;;;;;19.17;3.03;;;;;;;;;;5044434;28;20021;-43
2023/01/10 03:40:55;;;;;;;21.23;3.42;;;;;;;;;;5025675;28;20558;-44
2023/01/10 03:46:28;;;;;;;15.23;3.15;;;;;;;;;;5045624;28;20106;-43
2023/01/10 03:48:56;;;;;;;25.73;2.67;;;;;;;;;;5045408;28;20112;-43
2023/01/10 03:51:24;;;;;;;15.98;3.05;;;;;;;;;;5045021;28;20029;-42
2023/01/10 03:53:51;;;;;;;22.58;3.30;;;;;;;;;;5043791;28;20373;-41
2023/01/10 03:56:18;;;;;;;16.13;3.00;;;;;;;;;;5044861;28;20040;-43
2023/01/10 03:58:45;;;;;;;19.30;3.13;;;;;;;;;;5045772;28;20040;-43
2023/01/10 04:01:11;;;;;;;25.85;2.92;;;;;;;;;;5045564;28;20028;-42
2023/01/10 04:03:38;;;;;;;13.90;2.47;;;;;;;;;;5053011;28;20033;-42
2023/01/10 04:06:05;;;;;;;16.55;2.58;;;;;;;;;;5054995;28;20061;-43
2023/01/10 04:08:32;;;;;;;22.00;3.13;;;;;;;;;;5054677;28;20088;-43
2023/01/10 04:10:59;;;;;;;16.38;2.95;;;;;;;;;;5054879;28;20087;-42
2023/01/10 04:13:26;;;;;;;21.70;2.80;;;;;;;;;;5054742;28;20079;-43
2023/01/10 04:15:53;;;;;;;17.08;2.80;;;;;;;;;;5054656;28;20033;-43
2023/01/10 04:18:20;;;;;;;25.20;3.75;;;;;;;;;;5054830;28;20032;-43
2023/01/10 04:20:47;;;;;;;23.60;3.42;;;;;;;;;;5054619;28;20060;-43
2023/01/10 04:23:14;;;;;;;24.75;2.80;;;;;;;;;;5054668;28;20025;-42
2023/01/10 04:25:41;;;;;;;16.45;2.85;;;;;;;;;;5054646;28;20029;-41
2023/01/10 04:28:08;;;;;;;16.55;2.78;;;;;;;;;;5054608;28;20030;-43
2023/01/10 04:30:35;;;;;;;18.52;2.60;;;;;;;;;;5054489;28;20100;-43
2023/01/10 04:33:02;;;;;;;19.33;2.65;;;;;;;;;;5054525;28;20490;-43
2023/01/10 04:35:28;;;;;;;19.85;2.78;;;;;;;;;;5054447;28;20033;-43
2023/01/10 04:37:55;;;;;;;22.10;2.92;;;;;;;;;;5053966;28;20420;-42
2023/01/10 04:40:22;;;;;;;18.23;2.70;;;;;;;;;;5054252;28;20055;-42
2023/01/10 04:42:49;;;;;;;21.08;2.90;;;;;;;;;;5054332;28;20032;-42
2023/01/10 04:45:19;;;;;;;22.63;3.30;;;;;;;;;;5054454;28;20033;-42
2023/01/10 04:47:54;;;;;;;18.67;2.55;;;;;;;;;;5054090;28;20483;-42
2023/01/10 04:50:22;;;;;;;19.23;3.00;;;;;;;;;;5054055;28;20537;-42
2023/01/10 04:52:49;;;;;;;22.10;3.45;;;;;;;;;;5054107;28;20052;-42
2023/01/10 04:55:16;;;;;;;17.10;2.72;;;;;;;;;;5053854;28;20756;-43
2023/01/10 04:57:43;;;;;;;28.00;2.83;;;;;;;;;;5054078;28;20497;-42
2023/01/10 05:00:11;;;;;;;19.98;2.92;;;;;;;;;;5053892;28;20032;-41
2023/01/10 05:02:42;;;;;;;25.60;3.78;;;;;;;;;;5053955;28;20108;-43
2023/01/10 05:05:11;;;;;;;19.40;3.03;;;;;;;;;;5053850;28;20545;-43
2023/01/10 05:07:38;;;;;;;17.13;2.55;;;;;;;;;;5053754;28;20548;-40
2023/01/10 05:10:06;;;;;;;16.23;2.95;;;;;;;;;;5053733;28;20402;-44
2023/01/10 05:12:32;;;;;;;18.60;2.58;;;;;;;;;;5053739;28;20037;-44
2023/01/10 05:15:00;;;;;;;20.80;3.05;;;;;;;;;;5053550;28;20044;-43
2023/01/10 05:17:27;;;;;;;17.40;3.40;;;;;;;;;;5053826;28;20035;-41
2023/01/10 05:19:53;;;;;;;16.77;2.13;;;;;;;;;;5053722;28;20079;-42
2023/01/10 05:22:20;;;;;;;19.77;2.72;;;;;;;;;;5053548;28;20048;-43
2023/01/10 05:24:48;;;;;;;12.77;2.28;;;;;;;;;;5053533;28;20029;-41
2023/01/10 05:27:16;;;;;;;19.15;2.53;;;;;;;;;;5053460;28;20483;-43
2023/01/10 05:29:43;;;;;;;15.07;2.78;;;;;;;;;;5053452;28;20029;-41
2023/01/10 05:32:10;;;;;;;19.73;2.53;;;;;;;;;;5053365;28;20055;-43
2023/01/10 05:34:37;;;;;;;14.98;2.90;;;;;;;;;;5053328;28;20406;-43
2023/01/10 05:37:04;;;;;;;18.38;2.78;;;;;;;;;;5053301;28;20025;-43
2023/01/10 05:39:31;;;;;;;10.13;2.05;;;;;;;;;;5053266;28;20383;-41
2023/01/10 05:41:58;;;;;;;15.25;2.85;;;;;;;;;;5053145;28;20606;-43
2023/01/10 05:44:25;;;;;;;17.35;2.40;;;;;;;;;;5053333;28;20029;-43
2023/01/10 05:46:52;;;;;;;13.55;2.22;;;;;;;;;;5053068;28;20033;-42
2023/01/10 05:49:18;;;;;;;13.05;2.25;;;;;;;;;;5052269;28;20103;-42
2023/01/10 05:51:45;;;;;;;13.95;1.98;;;;;;;;;;5052901;28;20499;-40
2023/01/10 05:54:12;;;;;;;17.27;2.72;;;;;;;;;;5053006;28;20045;-42
2023/01/10 05:56:39;;;;;;;19.63;2.60;;;;;;;;;;5052849;28;20038;-43
2023/01/10 05:59:06;;;;;;;15.00;2.28;;;;;;;;;;5052972;28;20045;-43
2023/01/10 06:01:33;;;;;;;15.45;2.47;;;;;;;;;;5044437;28;20036;-43
2023/01/10 06:04:00;;;;;;;10.02;1.92;;;;;;;;;;5032794;28;20467;-43
2023/01/10 06:06:27;;;;;;;11.75;2.28;;;;;;;;;;5032733;28;20395;-43
2023/01/10 06:08:55;;;;;;;19.58;2.20;;;;;;;;;;5032651;28;20049;-43
2023/01/10 06:11:28;;;;;;;12.23;2.00;;;;;;;;;;5032571;28;20025;-43
2023/01/10 06:13:54;;;;;;;17.20;2.25;;;;;;;;;;5032619;28;20068;-41
2023/01/10 06:16:21;;;;;;;10.57;2.38;;;;;;;;;;5014837;28;20052;-39
2023/01/10 06:18:48;;;;;;;11.23;2.17;;;;;;;;;;5032718;28;20041;-43
2023/01/10 06:21:15;;;;;;;10.88;1.90;;;;;;;;;;5032192;28;20084;-41
2023/01/10 06:23:42;;;;;;;12.07;2.08;;;;;;;;;;5032473;28;20472;-42
2023/01/10 06:26:09;;;;;;;10.23;2.20;;;;;;;;;;5032496;28;20052;-43
2023/01/10 06:28:36;;;;;;;12.48;2.60;;;;;;;;;;5032368;28;20475;-43
2023/01/10 06:31:03;;;;;;;11.85;2.20;;;;;;;;;;5032281;28;20109;-41
2023/01/10 06:33:30;;;;;;;10.55;2.17;;;;;;;;;;5032363;28;20479;-42
2023/01/10 06:35:57;;;;;;;16.60;2.58;;;;;;;;;;5032220;28;20038;-41
2023/01/10 06:38:24;;;;;;;17.80;2.28;;;;;;;;;;5032279;28;20107;-40
2023/01/10 06:40:51;;;;;;;16.92;2.45;;;;;;;;;;5032152;28;20052;-42
2023/01/10 06:43:18;;;;;;;10.00;2.35;;;;;;;;;;5032190;28;20410;-42
2023/01/10 06:45:45;;;;;;;13.52;2.22;;;;;;;;;;5032172;28;20037;-40
2023/01/10 06:48:12;;;;;;;10.23;2.20;;;;;;;;;;5032154;28;20029;-42
2023/01/10 06:50:38;;;;;;;11.90;1.70;;;;;;;;;;5032002;28;20430;-41
2023/01/10 06:53:05;;;;;;;11.48;2.40;;;;;;;;;;5032036;28;20025;-42
2023/01/10 06:55:32;;;;;;;7.90;2.00;;;;;;;;;;5031972;28;20030;-42
2023/01/10 06:58:03;;;;;;;10.57;2.10;;;;;;;;;;5014284;28;20033;-43
2023/01/10 07:00:31;;;;;;;12.27;1.85;;;;;;;;;;5031761;28;20033;-41
2023/01/10 07:02:58;;;;;;;14.88;2.53;;;;;;;;;;5032014;28;20059;-43
2023/01/10 07:05:25;;;;;;;11.88;2.40;;;;;;;;;;5031917;28;20033;-40
2023/01/10 07:07:52;;;;;;;12.85;1.95;;;;;;;;;;5031683;28;20057;-43
2023/01/10 07:10:19;;;;;;;11.07;2.60;;;;;;;;;;5031754;28;20053;-42
2023/01/10 07:12:46;;;;;;;13.93;2.17;;;;;;;;;;5031918;28;20033;-42
2023/01/10 07:15:13;;;;;;;18.80;2.78;;;;;;;;;;5031852;28;20041;-43
2023/01/10 07:17:40;;;;;;;7.65;1.92;;;;;;;;;;5031735;28;20026;-42
2023/01/10 07:20:07;;;;;;;8.60;2.15;;;;;;;;;;5031889;28;20502;-41
2023/01/10 07:22:34;;;;;;;19.98;2.60;;;;;;;;;;5032322;28;20036;-43
2023/01/10 07:25:02;;;;;;;13.40;2.10;;;;;;;;;;5031821;28;20033;-42
2023/01/10 07:27:31;;;;;;;16.20;2.30;;;;;;;;;;5014226;28;20026;-42
2023/01/10 07:29:58;;;;;;;17.75;2.67;;;;;;;;;;5031814;28;20033;-43
2023/01/10 07:32:26;;;;;;;11.07;2.33;;;;;;;;;;5031606;28;20060;-43
2023/01/10 07:34:52;;;;;;;9.98;2.15;;;;;;;;;;5030641;28;20038;-42
2023/01/10 07:37:19;;;;;;;10.23;2.28;;;;;;;;;;5031522;28;20029;-43
2023/01/10 07:39:47;;;;;;;13.40;2.22;;;;;;;;;;5031642;28;20049;-43
2023/01/10 07:42:14;;;;;;;9.68;2.10;;;;;;;;;;5031560;28;20037;-40
2023/01/10 07:44:41;;;;;;;21.77;2.30;;;;;;;;;;5031569;28;20029;-43
2023/01/10 07:47:08;;;;;;;16.92;3.00;;;;;;;;;;5031600;28;20079;-43
2023/01/10 07:49:35;;;;;;;19.00;2.40;;;;;;;;;;5031529;28;20021;-43
2023/01/10 07:52:02;;;;;;;13.88;2.10;;;;;;;;;;5031435;28;20017;-43
2023/01/10 07:54:29;;;;;;;9.60;2.10;;;;;;;;;;5013708;28;20120;-43
2023/01/10 07:56:56;;;;;;;12.38;2.28;;;;;;;;;;5013634;28;20095;-43
2023/01/10 07:59:23;;;;;;;14.20;2.42;;;;;;;;;;5031677;28;20379;-43
2023/01/10 08:01:50;;;;;;;10.57;2.20;;;;;;;;;;5031332;28;20034;-43
2023/01/10 08:04:17;;;;;;;10.65;2.17;;;;;;;;;;5031453;28;20044;-41
2023/01/10 08:06:44;;;;;;;13.18;1.85;;;;;;;;;;5031215;28;20080;-42
2023/01/10 08:09:11;;;;;;;12.88;2.33;;;;;;;;;;5031472;28;20021;-43
2023/01/10 08:11:38;;;;;;;15.20;2.55;;;;;;;;;;5031324;28;20091;-42
2023/01/10 08:14:05;;;;;;;12.48;2.25;;;;;;;;;;5016443;28;20491;-42
2023/01/10 08:16:32;;;;;;;14.30;2.80;;;;;;;;;;5034930;28;20048;-43
2023/01/10 08:18:59;;;;;;;13.48;2.10;;;;;;;;;;5034833;28;20098;-42
2023/01/10 08:21:26;;;;;;;14.63;2.45;;;;;;;;;;5034832;28;20513;-42
2023/01/10 08:23:54;;;;;;;31.63;4.45;;;;;;;;;;5034824;28;20104;-42
2023/01/10 08:26:20;;;;;;;32.28;4.35;;;;;;;;;;5034746;28;20032;-41
2023/01/10 08:28:47;;;;;;;22.58;3.13;;;;;;;;;;5017059;28;20037;-43
2023/01/10 08:31:14;;;;;;;13.93;2.30;;;;;;;;;;5034541;28;20029;-43
2023/01/10 08:33:41;;;;;;;15.73;2.50;;;;;;;;;;5034669;28;20033;-43
2023/01/10 08:36:15;;;;;;;13.45;2.20;;;;;;;;;;5034527;28;20045;-41
2023/01/10 08:38:42;;;;;;;9.23;2.15;;;;;;;;;;5034498;28;20858;-43
2023/01/10 08:41:09;;;;;;;17.30;2.65;;;;;;;;;;5034326;28;20049;-43
2023/01/10 08:43:37;;;;;;;21.00;2.95;;;;;;;;;;5034418;28;20072;-43
2023/01/10 08:46:04;;;;;;;22.13;3.42;;;;;;;;;;5034421;28;20108;-43
2023/01/10 08:48:31;;;;;;;21.58;2.63;;;;;;;;;;5034425;28;20022;-39
2023/01/10 08:50:58;;;;;;;22.13;2.95;;;;;;;;;;5034241;28;20033;-41
2023/01/10 08:53:30;;;;;;;51.05;5.20;;;;;;;;;;5034092;28;20451;-43
2023/01/10 08:55:57;;;;;;;125.93;7.75;;;;;;;;;;5034172;28;20475;-43
2023/01/10 08:58:24;;;;;;;82.00;6.15;;;;;;;;;;5034274;28;20036;-43
2023/01/10 09:00:51;;;;;;;55.83;4.47;;;;;;;;;;5033946;28;20032;-41
2023/01/10 09:03:18;;;;;;;42.75;4.35;;;;;;;;;;5034100;28;20044;-41
2023/01/10 09:05:45;;;;;;;32.33;4.07;;;;;;;;;;5033991;28;20087;-43
2023/01/10 09:08:12;;;;;;;34.28;3.92;;;;;;;;;;5033829;28;20507;-42
2023/01/10 09:10:40;;;;;;;23.25;3.25;;;;;;;;;;5033981;28;20124;-41
2023/01/10 09:13:08;;;;;;;28.35;3.45;;;;;;;;;;5033823;28;20037;-43
2023/01/10 09:15:37;;;;;;;19.17;2.90;;;;;;;;;;5033662;28;20538;-43
2023/01/10 09:18:05;;;;;;;13.88;2.50;;;;;;;;;;5033772;28;20048;-41
2023/01/10 09:20:34;;;;;;;17.67;3.00;;;;;;;;;;5033800;28;20029;-40
2023/01/10 09:23:05;;;;;;;20.73;2.40;;;;;;;;;;5033750;28;20022;-43
2023/01/10 09:25:32;;;;;;;25.10;2.90;;;;;;;;;;5015867;28;20399;-43
2023/01/10 09:27:59;;;;;;;27.77;3.30;;;;;;;;;;5033598;28;20141;-41
2023/01/10 09:30:27;;;;;;;24.98;3.78;;;;;;;;;;5033551;28;20119;-41
2023/01/10 09:32:55;;;;;;;36.28;3.40;;;;;;;;;;5033526;28;20021;-43
2023/01/10 09:35:22;;;;;;;23.35;3.25;;;;;;;;;;5033350;28;20047;-43
2023/01/10 09:37:49;;;;;;;32.08;4.57;;;;;;;;;;5033476;28;20124;-43
2023/01/10 09:40:17;;;;;;;25.08;4.30;;;;;;;;;;5033365;28;20021;-42
2023/01/10 09:42:52;;;;;;;40.75;5.25;;;;;;;;;;5033375;28;20499;-43
2023/01/10 09:45:25;;;;;;;55.67;6.15;;;;;;;;;;4999260;28;20403;-43
2023/01/10 09:48:03;;;;;;;75.32;9.85;;;;;;;;;;5033331;28;20022;-42
2023/01/10 09:50:34;;;;;;;103.90;10.07;;;;;;;;;;5033071;28;20390;-41
2023/01/10 09:53:13;;;;;;;68.30;7.53;;;;;;;;;;5015367;28;20426;-42
2023/01/10 09:55:41;;;;;;;69.57;8.80;;;;;;;;;;5033057;28;20121;-42
2023/01/10 09:58:12;;;;;;;81.57;9.50;;;;;;;;;;5033059;28;20497;-41
2023/01/10 10:00:39;;;;;;;89.45;9.00;;;;;;;;;;5033024;28;20387;-41
2023/01/10 10:03:14;;;;;;;77.80;9.00;;;;;;;;;;5032848;28;20022;-43
2023/01/10 10:05:42;;;;;;;78.07;9.15;;;;;;;;;;5032883;28;20021;-43
2023/01/10 10:08:15;;;;;;;65.00;7.40;;;;;;;;;;5032564;28;20049;-42
2023/01/10 10:10:46;;;;;;;72.38;8.18;;;;;;;;;;5032656;28;20026;-42
2023/01/10 10:13:45;;;;;;;72.40;7.78;;;;;;;;;;5032759;28;20044;-43
2023/01/10 10:16:23;;;;;;;68.43;8.82;;;;;;;;;;4999745;28;20045;-41
2023/01/10 10:18:56;;;;;;;58.67;7.85;;;;;;;;;;5032731;28;20430;-43
2023/01/10 10:21:29;;;;;;;58.08;7.75;;;;;;;;;;5032604;28;20022;-41
2023/01/10 10:23:56;;;;;;;;;;;;;;;;;;5032964;28;20063;-43
2023/01/10 10:26:46;;;;;;;45.08;5.90;;;;;;;;;;5032540;28;19917;-43
2023/01/10 10:29:32;;;;;;;50.78;6.32;;;;;;;;;;5004363;28;20068;-43
2023/01/10 10:32:07;;;;;;;60.72;6.13;;;;;;;;;;5034889;28;20041;-42
2023/01/10 10:34:46;;;;;;;53.22;6.07;;;;;;;;;;5034250;28;20051;-44
2023/01/10 10:37:14;;;;;;;50.80;5.20;;;;;;;;;;5036165;28;20135;-43
2023/01/10 10:39:52;;;;;;;52.40;6.03;;;;;;;;;;5032556;28;20033;-43
2023/01/10 10:42:20;;;;;;;50.15;6.35;;;;;;;;;;5042403;28;20032;-43
2023/01/10 10:44:50;;;;;;;68.15;7.07;;;;;;;;;;5032343;28;20032;-42
2023/01/10 10:47:18;;;;;;;70.63;6.95;;;;;;;;;;5032048;28;20033;-43
2023/01/10 10:49:54;;;;;;;68.00;6.88;;;;;;;;;;5031963;28;20459;-43
2023/01/10 10:52:26;;;;;;;49.03;6.55;;;;;;;;;;5032204;28;20111;-43
2023/01/10 10:54:53;;;;;;;49.03;6.78;;;;;;;;;;5031993;28;20037;-43
2023/01/10 10:57:25;;;;;;;49.67;6.65;;;;;;;;;;5032027;28;20099;-43
2023/01/10 10:59:53;;;;;;;40.92;5.88;;;;;;;;;;5032027;28;20100;-42
2023/01/10 11:02:20;;;;;;;54.67;6.25;;;;;;;;;;5031474;28;20022;-43
2023/01/10 11:04:47;;;;;;;44.65;6.60;;;;;;;;;;5036653;28;20115;-43
2023/01/10 11:07:17;;;;;;;48.92;5.90;;;;;;;;;;5042001;28;20087;-42
2023/01/10 11:09:54;;;;;;;41.97;6.03;;;;;;;;;;5040186;28;20440;-38
2023/01/10 11:12:24;;;;;;;56.95;6.22;;;;;;;;;;5040836;28;20152;-35
2023/01/10 11:14:52;;;;;;;59.38;7.03;;;;;;;;;;5038745;28;20022;-44
2023/01/10 11:17:19;;;;;;;956.95;52.75;;;;;;;;;;5040908;28;20087;-46
2023/01/10 11:20:08;;;;;;;68.78;6.85;;;;;;;;;;5040591;28;20471;-42
2023/01/10 11:22:39;;;;;;;164.82;14.15;;;;;;;;;;5034158;28;20045;-48
2023/01/10 11:25:14;;;;;;;124.10;10.05;;;;;;;;;;5040530;28;20075;-48
2023/01/10 11:27:46;;;;;;;79.32;8.23;;;;;;;;;;5040683;28;20033;-49
2023/01/10 11:30:23;;;;;;;60.95;6.20;;;;;;;;;;5039603;28;20021;-46
2023/01/10 11:33:07;;;;;;;74.72;6.80;;;;;;;;;;5024583;28;20454;-47
2023/01/10 11:35:36;;;;;;;60.03;7.30;;;;;;;;;;5045946;28;20422;-49
2023/01/10 11:38:20;;;;;;;77.25;8.13;;;;;;;;;;5041876;28;20069;-42
2023/01/10 11:40:53;;;;;;;80.88;7.45;;;;;;;;;;5038507;28;20037;-40
2023/01/10 11:43:26;;;;;;;42.47;6.50;;;;;;;;;;5042515;28;20383;-40
2023/01/10 11:46:01;;;;;;;44.17;7.13;;;;;;;;;;5044243;28;20475;-41
2023/01/10 11:48:32;;;;;;;99.93;9.82;;;;;;;;;;5043497;28;20107;-41
2023/01/10 11:50:59;;;;;;;45.60;7.40;;;;;;;;;;5043696;28;20025;-41
2023/01/10 11:53:31;;;;;;;66.45;9.18;;;;;;;;;;5044505;28;20032;-37
2023/01/10 11:55:58;;;;;;;65.53;7.83;;;;;;;;;;5042126;28;20033;-41
2023/01/10 11:58:29;;;;;;;50.30;7.40;;;;;;;;;;5044263;28;20729;-43
2023/01/10 12:00:56;;;;;;;46.15;7.35;;;;;;;;;;5040409;28;20029;-43
2023/01/10 12:03:27;;;;;;;40.58;7.05;;;;;;;;;;5040825;28;20103;-45
2023/01/10 12:06:15;;;;;;;46.43;6.50;;;;;;;;;;5042681;28;20502;-44
2023/01/10 12:08:43;;;;;;;45.95;5.97;;;;;;;;;;5051793;28;20502;-45
2023/01/10 12:11:30;;;;;;;41.65;6.15;;;;;;;;;;5035874;28;20132;-45
2023/01/10 12:14:01;;;;;;;30.40;5.78;;;;;;;;;;5037343;28;20478;-45
2023/01/10 12:16:32;;;;;;;56.53;6.95;;;;;;;;;;5054240;28;20040;-45
2023/01/10 12:19:01;;;;;;;50.90;7.18;;;;;;;;;;5054457;28;20394;-45
2023/01/10 12:21:42;;;;;;;35.40;6.78;;;;;;;;;;5053500;28;20029;-46
2023/01/10 12:24:14;;;;;;;44.95;6.97;;;;;;;;;;5053675;28;20025;-41
2023/01/10 12:26:42;;;;;;;42.13;6.18;;;;;;;;;;5054370;28;20040;-41
2023/01/10 12:29:13;;;;;;;43.80;6.50;;;;;;;;;;5054399;28;20021;-41
2023/01/10 12:31:40;;;;;;;39.78;6.90;;;;;;;;;;5035321;28;20029;-41
2023/01/10 12:34:12;;;;;;;125.35;12.27;;;;;;;;;;5053338;28;20478;-41
2023/01/10 12:36:49;;;;;;;114.20;12.23;;;;;;;;;;5047355;28;20033;-42
2023/01/10 12:39:19;;;;;;;83.45;11.35;;;;;;;;;;5039321;28;20032;-41
2023/01/10 12:44:46;;;;;;;53.03;8.60;;;;;;;;;;5042209;28;20052;-43
2023/01/10 12:47:19;;;;;;;155.75;15.07;;;;;;;;;;5048669;28;20020;-43
2023/01/10 12:50:06;;;;;;;78.43;9.52;;;;;;;;;;5044242;28;20035;-44
2023/01/10 12:52:39;;;;;;;49.15;7.93;;;;;;;;;;5042304;28;20032;-44
2023/01/10 12:55:06;;;;;;;66.68;8.52;;;;;;;;;;5048867;28;20118;-42
2023/01/10 12:57:38;;;;;;;42.40;6.97;;;;;;;;;;5051243;28;20475;-43
2023/01/10 13:00:06;;;;;;;34.17;6.93;;;;;;;;;;5052668;28;20071;-45
2023/01/10 13:02:53;;;;;;;67.10;8.55;;;;;;;;;;5044212;28;20024;-45
2023/01/10 13:05:22;;;;;;;170.57;18.23;;;;;;;;;;5048103;28;20024;-45
2023/01/10 13:07:50;;;;;;;108.32;13.25;;;;;;;;;;5053362;28;20045;-44
2023/01/10 13:10:24;;;;;;;61.42;8.43;;;;;;;;;;5042670;28;20030;-46
2023/01/10 13:13:01;;;;;;;61.08;9.00;;;;;;;;;;5022131;28;20443;-45
2023/01/10 13:15:32;;;;;;;45.65;7.15;;;;;;;;;;5041905;28;20479;-47
2023/01/10 13:18:28;;;;;;;32.70;7.40;;;;;;;;;;5047501;28;20029;-45
2023/01/10 13:21:07;;;;;;;34.95;6.90;;;;;;;;;;5031469;28;20051;-45
2023/01/10 13:23:40;;;;;;;23.13;5.57;;;;;;;;;;5035618;28;20476;-45
2023/01/10 13:26:09;;;;;;;23.20;5.68;;;;;;;;;;5048041;28;20024;-45
2023/01/10 13:28:38;;;;;;;25.77;6.30;;;;;;;;;;5053085;28;20029;-44
2023/01/10 13:31:06;;;;;;;28.98;5.75;;;;;;;;;;5043678;28;20144;-48
2023/01/10 13:33:39;;;;;;;44.95;8.32;;;;;;;;;;5049513;28;20028;-48
2023/01/10 13:36:17;;;;;;;48.33;7.65;;;;;;;;;;5051962;28;20045;-42
2023/01/10 13:38:51;;;;;;;24.30;5.95;;;;;;;;;;5042937;28;20025;-44
2023/01/10 13:44:04;;;;;;;75.70;9.10;;;;;;;;;;5052121;28;20063;-47
2023/01/10 13:46:31;;;;;;;80.88;9.18;;;;;;;;;;5051894;28;20073;-46
2023/01/10 13:48:59;;;;;;;81.28;7.80;;;;;;;;;;5052727;28;20437;-46
2023/01/10 13:51:31;;;;;;;96.18;9.43;;;;;;;;;;5052561;28;20064;-43
2023/01/10 13:53:58;;;;;;;82.78;8.27;;;;;;;;;;5051762;28;20112;-43
2023/01/10 14:02:30;;;;;;;29.88;6.18;;;;;;;;;;5051436;28;20564;-43
2023/01/10 14:05:20;;;;;;;82.22;9.60;;;;;;;;;;5052267;28;20036;-43
2023/01/10 14:07:48;;;;;;;39.25;7.22;;;;;;;;;;5051393;28;20041;-43
2023/01/10 14:10:21;;;;;;;38.67;7.10;;;;;;;;;;5051637;28;20029;-43
2023/01/10 14:13:08;;;;;;;24.85;5.68;;;;;;;;;;5052458;28;20486;-41
2023/01/10 14:15:46;;;;;;;21.02;5.78;;;;;;;;;;5052314;28;20108;-41
2023/01/10 14:18:21;;;;;;;34.13;6.38;;;;;;;;;;5052414;28;20033;-41
2023/01/10 14:20:59;;;;;;;22.25;5.63;;;;;;;;;;5052324;28;20028;-41
2023/01/10 14:23:45;;;;;;;26.98;6.20;;;;;;;;;;5052205;28;20083;-41
2023/01/10 14:26:19;;;;;;;26.60;6.35;;;;;;;;;;5052043;28;20061;-41
2023/01/10 14:28:46;;;;;;;27.60;6.45;;;;;;;;;;5052051;28;20390;-41
2023/01/10 14:31:20;;;;;;;21.75;5.88;;;;;;;;;;5051425;28;20041;-40
2023/01/10 14:33:48;;;;;;;25.38;6.68;;;;;;;;;;5033957;28;20111;-40
2023/01/10 14:36:16;;;;;;;19.48;6.15;;;;;;;;;;5051758;28;20565;-40
2023/01/10 14:38:44;;;;;;;34.42;7.13;;;;;;;;;;5051580;28;20102;-40
2023/01/10 14:41:39;;;;;;;100.30;9.05;;;;;;;;;;5051760;28;20071;-40
2023/01/10 14:44:15;;;;;;;28.15;6.30;;;;;;;;;;5027317;28;20099;-43
2023/01/10 14:46:50;;;;;;;24.95;6.05;;;;;;;;;;5031933;28;20021;-45
2023/01/10 14:52:26;;;;;;;22.60;6.18;;;;;;;;;;5038616;28;20115;-40
2023/01/10 14:55:03;;;;;;;20.13;6.07;;;;;;;;;;5041900;28;20098;-40
2023/01/10 14:57:30;;;;;;;28.73;6.70;;;;;;;;;;5048324;28;20116;-40
2023/01/10 15:00:23;;;;;;;29.88;7.22;;;;;;;;;;5033753;28;20106;-43
2023/01/10 15:02:50;;;;;;;26.90;6.50;;;;;;;;;;5055495;28;20052;-41
2023/01/10 15:05:27;;;;;;;24.77;6.65;;;;;;;;;;5069503;28;20025;-42
2023/01/10 15:07:54;;;;;;;28.73;6.40;;;;;;;;;;5050722;28;20056;-43
2023/01/10 15:10:21;;;;;;;26.00;6.10;;;;;;;;;;5049368;28;20025;-40
2023/01/10 15:15:59;;;;;;;26.13;6.10;;;;;;;;;;5048194;28;20110;-41
2023/01/10 15:18:26;;;;;;;23.77;6.10;;;;;;;;;;5050616;28;20091;-45